Time;durP1;ratioP1;P1;durP2;ratioP2;P2;SDS_P1;SDS_P2;PMS_P1;PMS_P2;Temp;Humidity;BMP_temperature;BMP_pressure;BME280_temperature;BME280_humidity;BME280_pressure;Samples;Min_cycle;Max_cycle;Signal;HPM_P1;HPM_P2
2024/01/13 00:00:43;;;;;;;39.40;25.02;;;-0.30;77.20;;;;;;5052281;28;20531;-86
2024/01/13 00:03:10;;;;;;;34.08;18.17;;;-0.40;76.80;;;;;;5052147;28;20290;-86
2024/01/13 00:05:39;;;;;;;32.30;18.30;;;-0.30;77.00;;;;;;5051791;28;20282;-87
2024/01/13 00:08:06;;;;;;;36.80;20.02;;;-0.40;76.70;;;;;;5052036;28;20281;-86
2024/01/13 00:10:34;;;;;;;33.50;18.40;;;-0.40;76.20;;;;;;5052202;28;20273;-86
2024/01/13 00:13:00;;;;;;;29.13;16.45;;;-0.40;75.80;;;;;;5051715;28;20244;-86
2024/01/13 00:15:27;;;;;;;34.05;18.70;;;-0.50;75.40;;;;;;5052024;28;20198;-86
2024/01/13 00:17:53;;;;;;;39.65;20.10;;;-0.50;75.60;;;;;;5050867;28;20278;-86
2024/01/13 00:20:20;;;;;;;30.77;16.97;;;-0.50;75.80;;;;;;5051770;28;20294;-86
2024/01/13 00:22:48;;;;;;;40.97;19.98;;;-0.50;75.90;;;;;;5050136;28;20478;-86
2024/01/13 00:25:15;;;;;;;33.25;19.23;;;-0.60;75.80;;;;;;5051902;28;20202;-86
2024/01/13 00:27:42;;;;;;;35.47;19.02;;;-0.60;75.40;;;;;;5051441;28;20669;-86
2024/01/13 00:30:10;;;;;;;32.88;17.42;;;-0.60;74.80;;;;;;5051703;28;20302;-86
2024/01/13 00:32:36;;;;;;;37.75;20.00;;;-0.70;74.60;;;;;;5051635;28;20633;-86
2024/01/13 00:35:04;;;;;;;39.38;18.85;;;-0.70;74.70;;;;;;5051591;28;20294;-87
2024/01/13 00:37:31;;;;;;;36.08;19.17;;;-0.80;74.40;;;;;;5051649;28;20202;-87
2024/01/13 00:39:59;;;;;;;39.67;19.65;;;-0.80;74.70;;;;;;5051369;28;20281;-87
2024/01/13 00:42:26;;;;;;;40.38;20.00;;;-0.80;74.90;;;;;;5051221;28;20234;-86
2024/01/13 00:44:53;;;;;;;32.67;18.17;;;-0.80;75.10;;;;;;5051201;28;20705;-87
2024/01/13 00:47:20;;;;;;;32.20;18.92;;;-0.80;75.20;;;;;;5051245;28;20645;-86
2024/01/13 00:49:47;;;;;;;42.97;19.08;;;-0.80;75.40;;;;;;5050976;28;20246;-86
2024/01/13 00:52:13;;;;;;;30.98;17.92;;;-0.80;75.70;;;;;;5051395;28;20278;-86
2024/01/13 00:54:42;;;;;;;33.25;15.40;;;-0.80;76.10;;;;;;5051351;28;20286;-86
2024/01/13 00:57:10;;;;;;;35.88;17.60;;;-0.90;76.20;;;;;;5050990;28;20195;-86
2024/01/13 00:59:37;;;;;;;30.70;14.85;;;-1.10;77.50;;;;;;5051273;28;20598;-86
2024/01/13 01:02:04;;;;;;;26.65;14.15;;;-1.10;78.30;;;;;;5051189;28;20273;-87
2024/01/13 01:04:31;;;;;;;32.75;17.92;;;-1.10;78.90;;;;;;5051186;28;20222;-86
2024/01/13 01:06:58;;;;;;;34.25;15.27;;;-1.10;79.20;;;;;;5050468;28;20179;-86
2024/01/13 01:09:25;;;;;;;28.77;15.48;;;-1.10;79.70;;;;;;5050138;28;20635;-86
2024/01/13 01:11:52;;;;;;;39.63;16.20;;;-1.10;79.60;;;;;;5051102;28;20222;-86
2024/01/13 01:14:20;;;;;;;29.65;16.15;;;-1.20;79.80;;;;;;5051049;28;20277;-86
2024/01/13 01:16:49;;;;;;;29.58;15.70;;;-1.20;79.70;;;;;;5051069;28;20282;-86
2024/01/13 01:19:16;;;;;;;29.20;18.27;;;-1.10;80.10;;;;;;5050649;28;20286;-86
2024/01/13 01:21:43;;;;;;;29.83;14.70;;;-1.20;80.10;;;;;;5050931;28;20198;-86
2024/01/13 01:24:10;;;;;;;34.95;15.75;;;-1.20;80.20;;;;;;5050612;28;20297;-86
2024/01/13 01:26:37;;;;;;;30.92;14.80;;;-1.20;80.80;;;;;;5050014;28;20282;-86
2024/01/13 01:29:04;;;;;;;28.25;15.38;;;-1.30;81.20;;;;;;5050804;28;20298;-86
2024/01/13 01:31:32;;;;;;;32.35;16.08;;;-1.20;81.30;;;;;;5050909;28;20696;-86
2024/01/13 01:34:00;;;;;;;35.60;14.52;;;-1.20;81.30;;;;;;5049265;28;20274;-86
2024/01/13 01:36:26;;;;;;;27.42;13.60;;;-1.20;81.30;;;;;;5050438;28;20289;-86
2024/01/13 01:38:53;;;;;;;28.98;14.75;;;-1.20;81.40;;;;;;5050611;28;20205;-86
2024/01/13 01:41:21;;;;;;;28.05;13.98;;;-1.20;81.40;;;;;;5050364;28;20282;-86
2024/01/13 01:43:48;;;;;;;29.85;12.80;;;-1.20;81.50;;;;;;5050294;28;20582;-86
2024/01/13 01:46:16;;;;;;;30.52;15.27;;;-1.20;81.20;;;;;;5050116;28;20731;-86
2024/01/13 01:48:45;;;;;;;27.92;14.02;;;-1.20;81.30;;;;;;5050028;28;20310;-87
2024/01/13 01:51:13;;;;;;;30.30;15.02;;;-1.20;81.20;;;;;;5050075;28;20610;-86
2024/01/13 01:53:41;;;;;;;34.65;16.98;;;-1.20;80.90;;;;;;5049828;28;20273;-86
2024/01/13 01:56:12;;;;;;;30.40;16.05;;;-1.20;80.90;;;;;;5050402;28;20274;-87
2024/01/13 01:58:40;;;;;;;32.90;17.55;;;-1.20;81.10;;;;;;5050451;28;20261;-86
2024/01/13 02:01:08;;;;;;;30.10;14.15;;;-1.30;80.90;;;;;;5049921;28;20195;-86
2024/01/13 02:03:35;;;;;;;24.80;12.68;;;-1.30;80.90;;;;;;5049985;28;20282;-86
2024/01/13 02:06:05;;;;;;;36.00;15.60;;;-1.20;81.00;;;;;;5050270;28;20291;-86
2024/01/13 02:08:33;;;;;;;26.52;14.30;;;-1.30;80.90;;;;;;5050175;28;20231;-86
2024/01/13 02:10:59;;;;;;;27.10;13.50;;;-1.30;81.10;;;;;;5049874;28;20282;-86
2024/01/13 02:13:26;;;;;;;35.17;16.20;;;-1.30;81.00;;;;;;5049828;28;20274;-86
2024/01/13 02:15:53;;;;;;;25.75;13.48;;;-1.20;80.50;;;;;;5049864;28;20290;-87
2024/01/13 02:18:20;;;;;;;29.58;14.88;;;-1.20;79.80;;;;;;5050117;28;20191;-86
2024/01/13 02:20:48;;;;;;;30.63;13.10;;;-1.20;78.60;;;;;;5051511;28;20290;-86
2024/01/13 02:23:16;;;;;;;26.40;13.65;;;-1.20;78.40;;;;;;5053254;28;20183;-86
2024/01/13 02:25:43;;;;;;;29.13;14.88;;;-1.30;77.80;;;;;;5053646;28;20279;-86
2024/01/13 02:28:10;;;;;;;32.67;15.13;;;-1.40;77.80;;;;;;5053190;28;20286;-86
2024/01/13 02:30:37;;;;;;;26.85;15.00;;;-1.40;77.70;;;;;;5051486;28;20309;-87
2024/01/13 02:33:05;;;;;;;42.20;22.58;;;-1.40;77.80;;;;;;5052549;28;20230;-87
2024/01/13 02:35:31;;;;;;;29.58;16.25;;;-1.50;76.90;;;;;;5053642;28;20244;-86
2024/01/13 02:37:58;;;;;;;24.63;12.98;;;-1.50;76.70;;;;;;5053091;28;20701;-86
2024/01/13 02:40:27;;;;;;;24.17;12.63;;;-1.60;76.30;;;;;;5053184;28;20609;-86
2024/01/13 02:42:53;;;;;;;32.95;13.65;;;-1.60;76.70;;;;;;5053316;28;20285;-86
2024/01/13 02:45:20;;;;;;;27.77;11.60;;;-1.60;76.20;;;;;;5053074;28;20277;-86
2024/01/13 02:47:54;;;;;;;27.63;14.20;;;-1.60;76.80;;;;;;5052433;28;20743;-86
2024/01/13 02:50:21;;;;;;;27.17;13.30;;;-1.70;76.70;;;;;;5052867;28;20305;-86
2024/01/13 02:52:48;;;;;;;34.42;15.20;;;-1.70;76.60;;;;;;5052921;28;20278;-86
2024/01/13 02:55:15;;;;;;;34.45;15.50;;;-1.70;76.70;;;;;;5052888;28;20278;-86
2024/01/13 02:57:43;;;;;;;33.97;13.65;;;-1.70;76.70;;;;;;5053269;28;20282;-86
2024/01/13 03:00:13;;;;;;;32.05;16.92;;;-1.70;76.60;;;;;;5052831;28;20382;-86
2024/01/13 03:02:40;;;;;;;30.92;14.65;;;-1.70;76.70;;;;;;5052854;28;20224;-86
2024/01/13 03:05:09;;;;;;;32.50;13.70;;;-1.70;76.90;;;;;;5052816;28;20649;-86
2024/01/13 03:07:36;;;;;;;31.80;14.52;;;-1.70;76.40;;;;;;5052848;28;20687;-86
2024/01/13 03:10:06;;;;;;;29.98;14.05;;;-1.80;76.40;;;;;;5052997;28;20634;-87
2024/01/13 03:12:33;;;;;;;26.13;12.73;;;-1.80;77.20;;;;;;5052454;28;20236;-86
2024/01/13 03:15:03;;;;;;;33.13;12.07;;;-1.90;76.70;;;;;;5052746;28;20197;-86
2024/01/13 03:17:29;;;;;;;29.67;13.18;;;-1.90;77.30;;;;;;5052940;28;20222;-86
2024/01/13 03:19:56;;;;;;;28.10;14.50;;;-2.00;77.40;;;;;;5052853;28;20231;-86
2024/01/13 03:22:23;;;;;;;24.50;11.98;;;-2.00;78.10;;;;;;5052684;28;20198;-86
2024/01/13 03:24:50;;;;;;;23.60;11.70;;;-2.00;77.50;;;;;;5052782;28;20282;-86
2024/01/13 03:27:17;;;;;;;25.17;12.75;;;-2.00;77.90;;;;;;5052741;28;20282;-86
2024/01/13 03:29:44;;;;;;;26.80;12.52;;;-2.00;78.30;;;;;;5052334;28;20301;-87
2024/01/13 03:32:12;;;;;;;25.67;10.27;;;-2.10;78.20;;;;;;5051558;27;20270;-86
2024/01/13 03:34:39;;;;;;;26.65;11.70;;;-2.20;78.50;;;;;;5052664;28;20297;-86
2024/01/13 03:37:07;;;;;;;28.58;12.45;;;-2.20;78.60;;;;;;5052712;28;20372;-86
2024/01/13 03:39:34;;;;;;;26.05;12.35;;;-2.20;78.60;;;;;;5052279;27;20747;-86
2024/01/13 03:42:00;;;;;;;24.77;12.25;;;-2.20;78.60;;;;;;5052147;28;20274;-87
2024/01/13 03:44:27;;;;;;;25.00;11.93;;;-2.20;78.40;;;;;;5051938;28;20274;-86
2024/01/13 03:46:54;;;;;;;21.17;9.43;;;-2.20;78.20;;;;;;5051917;28;20700;-86
2024/01/13 03:49:23;;;;;;;19.38;10.05;;;-2.20;78.30;;;;;;5052309;28;20286;-86
2024/01/13 03:51:50;;;;;;;19.65;10.15;;;-2.30;77.90;;;;;;5051665;28;20282;-86
2024/01/13 03:54:16;;;;;;;20.05;10.88;;;-2.40;78.00;;;;;;5052432;28;20243;-86
2024/01/13 03:56:43;;;;;;;28.15;12.05;;;-2.40;78.70;;;;;;5051987;28;20281;-86
2024/01/13 03:59:12;;;;;;;27.73;12.07;;;-2.50;79.00;;;;;;5051628;28;20187;-86
2024/01/13 04:01:39;;;;;;;24.83;10.27;;;-2.50;79.60;;;;;;5051660;28;20197;-86
2024/01/13 04:04:06;;;;;;;28.58;11.98;;;-2.50;80.00;;;;;;5051798;28;20277;-87
2024/01/13 04:06:39;;;;;;;30.05;11.80;;;-2.60;79.80;;;;;;5051815;28;20553;-86
2024/01/13 04:09:06;;;;;;;26.02;11.93;;;-2.60;79.90;;;;;;5051764;28;20256;-86
2024/01/13 04:11:33;;;;;;;24.88;11.60;;;-2.60;80.10;;;;;;5051475;28;20779;-86
2024/01/13 04:14:00;;;;;;;26.60;11.43;;;-2.60;80.50;;;;;;5052187;28;20274;-86
2024/01/13 04:16:27;;;;;;;24.65;10.50;;;-2.70;80.80;;;;;;5051701;28;20220;-86
2024/01/13 04:18:54;;;;;;;23.25;11.82;;;-2.70;80.60;;;;;;5051326;28;20659;-87
2024/01/13 04:21:21;;;;;;;20.05;11.10;;;-2.70;81.10;;;;;;5051172;28;20704;-86
2024/01/13 04:23:49;;;;;;;23.88;11.40;;;-2.70;81.30;;;;;;5051847;28;20235;-86
2024/01/13 04:26:16;;;;;;;27.73;11.73;;;-2.70;81.50;;;;;;5051796;28;20278;-88
2024/01/13 04:28:43;;;;;;;25.42;9.80;;;-2.60;81.50;;;;;;5051412;28;20203;-87
2024/01/13 04:31:10;;;;;;;18.60;10.40;;;-2.60;80.60;;;;;;5051387;28;20305;-86
2024/01/13 04:33:37;;;;;;;22.50;10.13;;;-2.70;79.50;;;;;;5052036;28;20195;-86
2024/01/13 04:36:05;;;;;;;19.50;10.32;;;-2.80;79.40;;;;;;5051319;28;20229;-86
2024/01/13 04:38:32;;;;;;;26.95;9.45;;;-2.80;78.70;;;;;;5051351;28;20283;-86
2024/01/13 04:41:00;;;;;;;18.15;9.55;;;-2.90;77.50;;;;;;5051587;28;20191;-86
2024/01/13 04:43:27;;;;;;;26.40;11.23;;;-3.00;77.30;;;;;;5051166;28;20286;-86
2024/01/13 04:45:54;;;;;;;21.10;9.75;;;-3.10;77.40;;;;;;5050662;28;20717;-86
2024/01/13 04:48:22;;;;;;;22.27;11.23;;;-3.10;78.10;;;;;;5051549;28;20184;-86
2024/01/13 04:50:50;;;;;;;20.17;9.15;;;-3.10;78.80;;;;;;5050977;28;20306;-86
2024/01/13 04:53:17;;;;;;;32.88;12.95;;;-3.10;79.30;;;;;;5051082;28;20191;-86
2024/01/13 04:55:44;;;;;;;21.83;9.45;;;-3.00;79.50;;;;;;5051090;28;20708;-86
2024/01/13 04:58:12;;;;;;;24.33;10.45;;;-3.00;79.20;;;;;;5051036;28;20590;-86
2024/01/13 05:00:39;;;;;;;20.63;10.70;;;-3.00;79.10;;;;;;5051101;28;20599;-86
2024/01/13 05:03:06;;;;;;;18.92;9.38;;;-3.10;79.60;;;;;;5051294;28;20278;-86
2024/01/13 05:05:33;;;;;;;25.27;10.10;;;-3.10;80.40;;;;;;5051149;28;20357;-86
2024/01/13 05:07:59;;;;;;;19.63;10.07;;;-3.00;80.60;;;;;;5050346;28;20289;-86
2024/01/13 05:10:27;;;;;;;22.02;11.50;;;-3.00;80.60;;;;;;5049932;28;20392;-86
2024/01/13 05:12:54;;;;;;;23.77;10.10;;;-3.00;80.90;;;;;;5050161;28;20290;-85
2024/01/13 05:15:22;;;;;;;26.75;11.15;;;-3.00;80.90;;;;;;5055806;27;20273;-86
2024/01/13 05:17:49;;;;;;;28.88;11.23;;;-3.10;81.00;;;;;;5070054;28;20281;-86
2024/01/13 05:20:16;;;;;;;18.35;10.63;;;-3.10;81.00;;;;;;5070151;28;20201;-86
2024/01/13 05:22:43;;;;;;;20.52;9.77;;;-3.00;81.20;;;;;;5051384;27;20277;-86
2024/01/13 05:25:10;;;;;;;27.50;11.70;;;-3.10;80.00;;;;;;5049846;28;20283;-86
2024/01/13 05:27:37;;;;;;;21.15;9.95;;;-3.20;79.50;;;;;;5050378;28;20600;-86
2024/01/13 05:30:05;;;;;;;18.52;9.85;;;-3.30;80.00;;;;;;5049640;28;20304;-85
2024/01/13 05:32:33;;;;;;;25.23;11.55;;;-3.40;80.90;;;;;;5049795;28;20278;-86
2024/01/13 05:35:00;;;;;;;18.20;9.50;;;-3.40;82.10;;;;;;5050028;28;20278;-86
2024/01/13 05:37:27;;;;;;;19.95;9.45;;;-3.40;82.30;;;;;;5050067;28;20278;-86
2024/01/13 05:39:54;;;;;;;25.38;10.65;;;-3.40;82.40;;;;;;5049724;28;20277;-85
2024/01/13 05:42:20;;;;;;;17.35;8.38;;;-3.40;82.20;;;;;;5049321;28;20274;-86
2024/01/13 05:44:47;;;;;;;19.80;10.15;;;-3.40;81.90;;;;;;5049965;28;20609;-86
2024/01/13 05:47:14;;;;;;;28.48;11.52;;;-3.40;81.60;;;;;;5049655;28;20317;-86
2024/01/13 05:49:44;;;;;;;21.95;10.55;;;-3.40;81.80;;;;;;5050254;28;20191;-85
2024/01/13 05:52:11;;;;;;;17.80;8.90;;;-3.40;80.90;;;;;;5048297;28;20219;-86
2024/01/13 05:54:39;;;;;;;24.65;10.25;;;-3.40;80.40;;;;;;5048845;28;20187;-86
2024/01/13 05:57:06;;;;;;;22.40;9.68;;;-3.50;80.20;;;;;;5048997;28;20279;-86
2024/01/13 05:59:32;;;;;;;23.63;9.88;;;-3.60;79.80;;;;;;5049333;28;20274;-85
2024/01/13 06:01:59;;;;;;;21.08;10.27;;;-3.70;80.10;;;;;;5049199;28;20282;-86
2024/01/13 06:04:26;;;;;;;17.88;8.55;;;-3.70;81.00;;;;;;5049547;28;20206;-86
2024/01/13 06:06:55;;;;;;;16.63;8.60;;;-3.70;80.80;;;;;;5049168;28;20267;-87
2024/01/13 06:09:22;;;;;;;23.23;9.45;;;-3.80;80.90;;;;;;5049885;28;20191;-87
2024/01/13 06:11:48;;;;;;;19.05;10.07;;;-3.70;81.20;;;;;;5049229;28;20313;-88
2024/01/13 06:14:18;;;;;;;26.15;11.07;;;-3.70;81.20;;;;;;5049108;28;20281;-88
2024/01/13 06:16:45;;;;;;;15.15;8.30;;;-3.70;80.30;;;;;;5048399;28;20269;-87
2024/01/13 06:19:12;;;;;;;19.50;10.07;;;-3.70;80.00;;;;;;5049498;28;20328;-87
2024/01/13 06:21:43;;;;;;;23.27;9.63;;;-3.70;80.30;;;;;;5048875;28;20739;-87
2024/01/13 06:24:11;;;;;;;17.38;9.70;;;-3.70;79.80;;;;;;5049306;28;20547;-87
2024/01/13 06:26:39;;;;;;;20.63;10.95;;;-3.80;79.40;;;;;;5048788;28;20183;-87
2024/01/13 06:29:07;;;;;;;19.52;10.98;;;-3.80;80.50;;;;;;5049336;28;20198;-87
2024/01/13 06:31:34;;;;;;;24.25;10.57;;;-3.80;80.50;;;;;;5049291;28;20488;-86
2024/01/13 06:34:01;;;;;;;23.00;10.57;;;-3.70;80.30;;;;;;5049008;28;20259;-87
2024/01/13 06:36:29;;;;;;;23.50;10.15;;;-3.70;80.30;;;;;;5049001;28;20263;-87
2024/01/13 06:38:56;;;;;;;23.70;8.82;;;-3.70;80.10;;;;;;5049344;28;20223;-86
2024/01/13 06:41:25;;;;;;;24.00;10.15;;;-3.70;79.60;;;;;;5049810;28;20255;-87
2024/01/13 06:43:51;;;;;;;21.77;11.50;;;-3.70;78.80;;;;;;5048936;28;20193;-87
2024/01/13 06:46:18;;;;;;;26.38;11.32;;;-3.70;78.30;;;;;;5048104;28;20265;-87
2024/01/13 06:48:45;;;;;;;16.70;8.27;;;-3.60;78.60;;;;;;5048975;28;20307;-87
2024/01/13 06:51:12;;;;;;;42.85;13.82;;;-3.60;78.60;;;;;;5048758;28;20310;-87
2024/01/13 06:53:39;;;;;;;25.23;12.23;;;-3.50;78.30;;;;;;5049025;28;20245;-87
2024/01/13 06:56:06;;;;;;;21.58;10.20;;;-3.50;77.40;;;;;;5048461;28;20283;-87
2024/01/13 06:58:35;;;;;;;26.63;11.70;;;-3.50;76.70;;;;;;5028987;28;20242;-88
2024/01/13 07:01:02;;;;;;;23.40;10.20;;;-3.50;76.40;;;;;;5029129;28;20282;-87
2024/01/13 07:03:28;;;;;;;14.90;6.97;;;-3.50;76.20;;;;;;5028770;28;20676;-87
2024/01/13 07:05:55;;;;;;;21.08;9.30;;;-3.50;76.20;;;;;;5028778;28;20196;-87
2024/01/13 07:08:21;;;;;;;16.23;10.00;;;-3.40;76.40;;;;;;5049858;28;20277;-87
2024/01/13 07:10:51;;;;;;;24.55;10.40;;;-3.50;75.50;;;;;;5052249;28;20340;-87
2024/01/13 07:13:18;;;;;;;22.35;10.25;;;-3.60;75.40;;;;;;5051220;28;20637;-87
2024/01/13 07:15:46;;;;;;;22.95;10.52;;;-3.70;76.20;;;;;;5051588;28;20286;-87
2024/01/13 07:18:13;;;;;;;22.27;8.73;;;-3.70;77.00;;;;;;5051404;28;20267;-87
2024/01/13 07:20:40;;;;;;;23.17;11.05;;;-3.70;77.10;;;;;;5051830;28;20286;-87
2024/01/13 07:23:07;;;;;;;21.40;8.70;;;-3.70;77.10;;;;;;5051437;28;20282;-87
2024/01/13 07:25:35;;;;;;;25.25;11.77;;;-3.70;75.20;;;;;;5051537;28;20560;-87
2024/01/13 07:28:02;;;;;;;22.40;10.00;;;-3.90;74.90;;;;;;5051375;28;20285;-87
2024/01/13 07:30:29;;;;;;;17.95;9.13;;;-4.00;75.20;;;;;;5051379;28;20202;-87
2024/01/13 07:32:57;;;;;;;21.23;10.45;;;-4.00;76.20;;;;;;5051346;28;20199;-87
2024/01/13 07:35:24;;;;;;;17.33;9.23;;;-4.10;76.90;;;;;;5051671;28;20332;-87
2024/01/13 07:37:51;;;;;;;22.05;10.25;;;-4.10;77.20;;;;;;5049833;28;20191;-87
2024/01/13 07:40:18;;;;;;;22.77;9.45;;;-4.10;77.50;;;;;;5051166;28;20271;-87
2024/01/13 07:42:45;;;;;;;16.50;9.30;;;-4.20;76.40;;;;;;5051795;28;20288;-87
2024/01/13 07:45:12;;;;;;;30.48;9.77;;;-4.20;77.40;;;;;;5051349;28;20203;-87
2024/01/13 07:47:39;;;;;;;20.63;9.68;;;-4.10;77.00;;;;;;5051422;28;20246;-87
2024/01/13 07:50:08;;;;;;;15.88;9.45;;;-4.20;76.50;;;;;;5051365;28;20274;-87
2024/01/13 07:52:35;;;;;;;22.90;10.00;;;-4.10;76.40;;;;;;5051079;28;20621;-87
2024/01/13 07:55:02;;;;;;;20.30;9.85;;;-4.10;76.70;;;;;;5051300;28;20216;-87
2024/01/13 07:57:29;;;;;;;14.60;8.88;;;-4.10;75.40;;;;;;5050669;28;20203;-87
2024/01/13 07:59:56;;;;;;;15.52;8.90;;;-4.30;73.90;;;;;;5051142;28;20616;-88
2024/01/13 08:02:23;;;;;;;16.67;8.77;;;-4.30;74.90;;;;;;5051015;28;20595;-87
2024/01/13 08:04:50;;;;;;;16.67;10.25;;;-4.30;74.90;;;;;;5051246;28;20258;-87
2024/01/13 08:07:20;;;;;;;25.30;10.32;;;-4.40;75.00;;;;;;5050306;28;20218;-87
2024/01/13 08:09:47;;;;;;;21.88;9.75;;;-4.20;75.80;;;;;;5051120;28;20191;-88
2024/01/13 08:12:15;;;;;;;16.25;8.75;;;-4.10;75.60;;;;;;5051077;28;20260;-87
2024/01/13 08:14:42;;;;;;;17.13;8.48;;;-4.00;74.50;;;;;;5050762;28;20277;-87
2024/01/13 08:17:09;;;;;;;15.93;9.52;;;-4.00;73.20;;;;;;5050072;28;20247;-87
2024/01/13 08:19:37;;;;;;;17.23;8.40;;;-4.20;72.90;;;;;;5050654;28;20616;-87
2024/01/13 08:22:04;;;;;;;21.02;10.02;;;-4.10;73.70;;;;;;5050642;28;20199;-87
2024/01/13 08:24:33;;;;;;;19.80;9.45;;;-4.00;72.40;;;;;;5050465;28;20222;-87
2024/01/13 08:27:00;;;;;;;21.27;10.27;;;-3.90;72.00;;;;;;5050415;28;20266;-88
2024/01/13 08:29:26;;;;;;;24.45;9.82;;;-3.80;71.30;;;;;;5050787;28;20281;-87
2024/01/13 08:31:53;;;;;;;22.00;9.05;;;-3.80;69.90;;;;;;5050747;28;20301;-87
2024/01/13 08:34:20;;;;;;;14.38;8.68;;;-3.80;69.40;;;;;;5050760;28;20187;-87
2024/01/13 08:36:47;;;;;;;21.95;9.40;;;-3.70;69.60;;;;;;5050239;28;20237;-87
2024/01/13 08:39:14;;;;;;;26.70;9.85;;;-3.60;69.60;;;;;;5050571;28;20613;-87
2024/01/13 08:41:43;;;;;;;22.50;9.23;;;-3.40;69.40;;;;;;5050354;28;20250;-87
2024/01/13 08:44:11;;;;;;;18.15;9.50;;;-3.10;68.90;;;;;;5050670;28;20191;-87
2024/01/13 08:46:38;;;;;;;15.52;8.35;;;-2.80;68.40;;;;;;5050225;28;20234;-88
2024/01/13 08:49:05;;;;;;;17.08;8.63;;;-2.30;67.00;;;;;;5050029;28;20606;-88
2024/01/13 08:51:32;;;;;;;14.88;8.05;;;-1.80;62.90;;;;;;5050092;28;20298;-88
2024/01/13 08:53:59;;;;;;;15.30;9.30;;;-1.60;60.50;;;;;;5050188;28;20625;-88
2024/01/13 08:56:26;;;;;;;19.88;9.30;;;-1.30;59.90;;;;;;5050395;28;20267;-87
2024/01/13 08:58:55;;;;;;;17.52;9.63;;;-0.90;59.00;;;;;;5046700;28;20282;-88
2024/01/13 09:01:22;;;;;;;16.08;9.05;;;-0.60;58.30;;;;;;5049204;28;20678;-88
2024/01/13 09:03:49;;;;;;;16.83;9.38;;;-0.20;57.30;;;;;;5048907;28;20266;-88
2024/01/13 09:06:15;;;;;;;15.65;9.13;;;0.10;55.20;;;;;;5049432;28;20233;-89
2024/01/13 09:08:42;;;;;;;17.50;11.05;;;0.40;56.40;;;;;;5048859;28;20683;-89
2024/01/13 09:11:10;;;;;;;14.85;8.27;;;0.80;55.30;;;;;;5049449;28;20211;-88
2024/01/13 09:13:37;;;;;;;15.30;8.18;;;0.90;53.00;;;;;;5048656;28;20187;-88
2024/01/13 09:16:06;;;;;;;15.95;9.70;;;1.30;53.30;;;;;;5049871;28;20191;-89
2024/01/13 09:18:33;;;;;;;15.88;9.07;;;1.70;52.80;;;;;;5049356;28;20578;-88
2024/01/13 09:21:00;;;;;;;18.92;9.68;;;2.00;52.10;;;;;;5049241;28;20243;-89
2024/01/13 09:23:27;;;;;;;15.82;9.02;;;2.30;51.20;;;;;;5045500;28;20527;-88
2024/01/13 09:25:54;;;;;;;15.63;8.60;;;2.60;50.00;;;;;;5047970;28;20238;-89
2024/01/13 09:28:21;;;;;;;15.80;9.27;;;2.90;49.50;;;;;;5049205;28;20229;-88
2024/01/13 09:30:47;;;;;;;18.55;8.50;;;3.30;49.10;;;;;;5047912;28;20197;-88
2024/01/13 09:33:16;;;;;;;16.52;9.88;;;3.50;47.90;;;;;;5048150;28;20285;-89
2024/01/13 09:35:43;;;;;;;16.77;8.05;;;3.70;47.20;;;;;;5049125;27;20282;-88
2024/01/13 09:38:10;;;;;;;15.75;8.15;;;4.00;46.10;;;;;;5049255;28;20278;-92
2024/01/13 09:40:41;;;;;;;14.85;8.98;;;4.20;44.80;;;;;;5048808;28;20195;-89
2024/01/13 09:43:16;;;;;;;16.00;8.77;;;4.30;43.90;;;;;;5049270;28;20183;-88
2024/01/13 09:45:48;;;;;;;19.23;10.10;;;4.50;43.30;;;;;;5049671;28;20175;-88
2024/01/13 09:48:18;;;;;;;15.55;9.27;;;4.70;42.70;;;;;;5049043;28;20208;-89
2024/01/13 09:50:48;;;;;;;22.05;11.90;;;5.00;42.80;;;;;;5048882;28;20204;-88
2024/01/13 09:53:27;;;;;;;23.95;15.00;;;5.30;41.60;;;;;;5048545;28;20310;-88
2024/01/13 09:55:58;;;;;;;21.73;12.38;;;5.50;40.60;;;;;;5049044;28;20190;-88
2024/01/13 09:58:26;;;;;;;24.13;11.95;;;5.60;40.50;;;;;;5048548;28;20281;-88
2024/01/13 10:00:54;;;;;;;22.60;13.50;;;5.60;40.10;;;;;;5045323;28;20183;-88
2024/01/13 10:03:23;;;;;;;19.00;9.88;;;5.90;40.90;;;;;;5048779;28;20234;-89
2024/01/13 10:05:53;;;;;;;23.73;12.60;;;6.20;39.70;;;;;;5048754;28;20202;-89
2024/01/13 10:08:25;;;;;;;21.80;12.88;;;6.30;39.80;;;;;;5048648;28;20191;-88
2024/01/13 10:10:52;;;;;;;18.20;12.00;;;6.50;38.60;;;;;;5048642;28;20604;-88
2024/01/13 10:13:20;;;;;;;21.40;13.13;;;6.60;37.60;;;;;;5048766;28;20640;-88
2024/01/13 10:15:47;;;;;;;22.05;12.63;;;6.80;37.50;;;;;;5047765;28;20286;-88
2024/01/13 10:18:14;;;;;;;38.28;21.00;;;6.80;37.10;;;;;;5044484;28;20556;-88
2024/01/13 10:20:43;;;;;;;26.58;19.20;;;6.50;37.00;;;;;;5047433;28;20195;-89
2024/01/13 10:23:09;;;;;;;28.35;22.65;;;6.30;36.70;;;;;;5047677;28;20233;-88
2024/01/13 10:25:36;;;;;;;21.45;15.27;;;6.10;36.90;;;;;;5048621;28;20233;-88
2024/01/13 10:28:04;;;;;;;19.75;13.73;;;5.90;37.50;;;;;;5047429;28;20278;-88
2024/01/13 10:30:31;;;;;;;25.60;14.50;;;5.70;37.70;;;;;;5047888;28;20544;-88
2024/01/13 10:32:59;;;;;;;22.17;13.68;;;5.50;37.60;;;;;;5047504;28;20709;-88
2024/01/13 10:35:27;;;;;;;23.88;12.90;;;5.40;38.20;;;;;;5047747;28;20661;-88
2024/01/13 10:37:57;;;;;;;21.75;13.18;;;5.30;38.30;;;;;;5047649;28;20574;-88
2024/01/13 10:40:24;;;;;;;20.15;12.85;;;5.30;38.60;;;;;;5048360;28;20217;-88
2024/01/13 10:42:55;;;;;;;22.60;16.60;;;5.20;38.60;;;;;;5051823;28;20195;-88
2024/01/13 10:45:24;;;;;;;21.08;12.20;;;5.10;39.10;;;;;;5051969;28;20199;-88
2024/01/13 10:47:52;;;;;;;30.58;15.90;;;4.90;39.00;;;;;;5051473;28;20223;-88
2024/01/13 10:50:19;;;;;;;20.15;11.65;;;4.70;39.50;;;;;;5051298;28;20199;-88
2024/01/13 10:52:58;;;;;;;21.40;12.80;;;4.60;40.00;;;;;;5051466;28;20210;-89
2024/01/13 10:55:26;;;;;;;17.65;11.20;;;4.60;39.90;;;;;;5051174;28;20651;-88
2024/01/13 10:57:54;;;;;;;27.40;12.98;;;4.60;39.50;;;;;;5050873;28;20210;-88
2024/01/13 11:00:21;;;;;;;21.70;10.95;;;4.70;39.30;;;;;;5051679;28;20226;-88
2024/01/13 11:02:50;;;;;;;16.67;10.45;;;4.90;39.20;;;;;;5032130;28;20256;-88
2024/01/13 11:05:19;;;;;;;14.93;10.07;;;5.00;39.10;;;;;;5039030;28;20279;-90
2024/01/13 11:07:46;;;;;;;16.58;10.40;;;5.30;38.90;;;;;;5050236;28;20323;-90
2024/01/13 11:10:20;;;;;;;17.05;10.52;;;5.50;38.50;;;;;;5046893;28;20274;-88
2024/01/13 11:12:50;;;;;;;14.93;9.25;;;5.90;38.20;;;;;;5051035;28;20328;-89
2024/01/13 11:15:27;;;;;;;17.13;10.98;;;6.10;38.30;;;;;;5050446;28;20664;-89
2024/01/13 11:17:54;;;;;;;18.70;10.88;;;6.40;38.80;;;;;;5047610;28;20194;-88
2024/01/13 11:20:22;;;;;;;17.63;11.88;;;6.70;37.50;;;;;;5050214;28;20322;-89
2024/01/13 11:22:58;;;;;;;19.05;11.95;;;7.00;36.60;;;;;;5051100;28;20572;-88
2024/01/13 11:25:27;;;;;;;18.40;13.88;;;7.20;36.40;;;;;;5048386;28;20222;-90
2024/01/13 11:27:55;;;;;;;22.60;15.45;;;7.30;35.90;;;;;;5049954;28;20233;-90
2024/01/13 11:30:37;;;;;;;15.98;13.13;;;7.50;35.40;;;;;;5049295;28;20218;-88
2024/01/13 11:33:06;;;;;;;18.08;11.93;;;7.60;35.20;;;;;;5030903;28;20277;-88
2024/01/13 11:35:33;;;;;;;19.20;11.98;;;7.80;35.00;;;;;;5030092;28;20200;-88
2024/01/13 11:38:02;;;;;;;18.40;12.70;;;7.90;34.80;;;;;;5030761;28;20286;-89
2024/01/13 11:40:32;;;;;;;18.15;13.35;;;8.10;34.20;;;;;;5031179;28;20701;-88
2024/01/13 11:43:00;;;;;;;20.67;13.98;;;8.10;33.10;;;;;;5030142;28;20199;-88
2024/01/13 11:45:42;;;;;;;18.48;12.73;;;8.20;33.50;;;;;;5030784;28;20223;-88
2024/01/13 11:48:38;;;;;;;20.52;13.13;;;8.40;33.10;;;;;;5030954;28;20184;-88
2024/01/13 11:51:08;;;;;;;21.20;13.32;;;8.60;31.70;;;;;;5031658;28;20248;-88
2024/01/13 11:53:36;;;;;;;17.13;12.13;;;8.50;31.10;;;;;;5029168;28;20208;-88
2024/01/13 11:56:05;;;;;;;18.40;13.20;;;8.50;32.00;;;;;;5030544;28;20557;-88
2024/01/13 11:58:34;;;;;;;18.73;13.30;;;8.50;31.80;;;;;;5043766;28;20198;-88
2024/01/13 12:01:05;;;;;;;20.48;14.25;;;8.40;31.60;;;;;;5050660;28;20263;-89
2024/01/13 12:03:32;;;;;;;21.00;13.88;;;8.20;31.20;;;;;;5049706;28;20708;-88
2024/01/13 12:06:00;;;;;;;16.88;12.80;;;8.20;31.80;;;;;;5049414;28;20282;-88
2024/01/13 12:08:27;;;;;;;22.20;15.00;;;8.40;31.90;;;;;;5050090;28;20191;-88
2024/01/13 12:10:54;;;;;;;19.98;13.80;;;8.20;31.00;;;;;;5050491;28;20281;-88
2024/01/13 12:13:23;;;;;;;24.45;15.57;;;7.80;31.20;;;;;;5050316;28;20208;-88
2024/01/13 12:15:50;;;;;;;17.25;13.68;;;7.30;31.90;;;;;;5050083;28;20283;-88
2024/01/13 12:18:21;;;;;;;23.27;14.95;;;6.90;33.30;;;;;;5050489;28;20286;-89
2024/01/13 12:20:50;;;;;;;20.20;13.90;;;6.50;35.00;;;;;;5049915;28;20270;-88
2024/01/13 12:23:18;;;;;;;24.75;15.77;;;6.20;35.70;;;;;;5050318;28;20285;-88
2024/01/13 12:25:45;;;;;;;28.02;18.05;;;6.00;35.40;;;;;;5049619;28;20195;-88
2024/01/13 12:28:12;;;;;;;50.55;25.13;;;5.80;35.80;;;;;;5049414;28;20281;-88
2024/01/13 12:30:41;;;;;;;28.33;18.10;;;5.70;36.70;;;;;;5050008;28;20644;-88
2024/01/13 12:33:07;;;;;;;25.73;15.00;;;5.80;37.00;;;;;;5049852;28;20310;-88
2024/01/13 12:35:34;;;;;;;18.80;12.70;;;6.00;37.40;;;;;;5049765;28;20583;-89